createdAt,value
2019-04-25T00:01:49.342Z,0.73
2019-04-25T00:04:18.621Z,0.70
2019-04-25T00:06:45.933Z,0.70
2019-04-25T00:09:16.125Z,0.70
2019-04-25T00:11:46.568Z,0.60
2019-04-25T00:14:14.028Z,0.80
2019-04-25T00:16:44.151Z,0.80
2019-04-25T00:19:12.082Z,0.70
2019-04-25T00:21:48.801Z,0.97
2019-04-25T00:24:32.068Z,0.70
2019-04-25T00:26:59.495Z,0.90
2019-04-25T00:29:26.857Z,0.80
2019-04-25T00:31:54.180Z,0.97
2019-04-25T00:34:21.864Z,1.07
2019-04-25T00:36:49.645Z,0.87
2019-04-25T00:39:16.988Z,0.90
2019-04-25T00:41:45.495Z,1.13
2019-04-25T00:44:13.510Z,1.00
2019-04-25T00:46:44.811Z,0.80
2019-04-25T00:49:10.077Z,1.27
2019-04-25T00:51:37.421Z,0.80
2019-04-25T00:54:04.739Z,0.80
2019-04-25T00:56:32.253Z,0.80
2019-04-25T00:59:34.046Z,0.80
2019-04-25T01:02:26.926Z,1.40
2019-04-25T01:04:54.378Z,0.90
2019-04-25T01:07:22.390Z,0.90
2019-04-25T01:09:50.132Z,1.00
2019-04-25T01:12:18.279Z,1.10
2019-04-25T01:14:46.472Z,1.10
2019-04-25T01:17:14.179Z,1.10
2019-04-25T01:19:41.538Z,1.20
2019-04-25T01:22:08.949Z,1.03
2019-04-25T01:24:36.304Z,1.10
2019-04-25T01:27:05.380Z,1.37
2019-04-25T01:29:33.473Z,1.00
2019-04-25T01:32:03.299Z,1.10
2019-04-25T01:34:50.867Z,1.10
2019-04-25T01:37:36.650Z,1.20
2019-04-25T01:40:23.528Z,1.30
2019-04-25T01:43:07.693Z,1.50
2019-04-25T01:45:35.062Z,1.40
2019-04-25T01:48:03.499Z,1.20
2019-04-25T01:50:30.949Z,1.33
2019-04-25T01:52:58.737Z,1.80
2019-04-25T01:55:26.098Z,1.30
2019-04-25T01:57:54.786Z,1.23
2019-04-25T02:00:33.260Z,1.30
2019-04-25T02:03:00.757Z,1.40
2019-04-25T02:05:28.077Z,1.60
2019-04-25T02:07:55.834Z,1.20
2019-04-25T02:10:23.770Z,1.63
2019-04-25T02:12:56.324Z,1.30
2019-04-25T02:15:27.169Z,1.27
2019-04-25T02:17:57.181Z,1.27
2019-04-25T02:20:23.911Z,1.40
2019-04-25T02:22:52.147Z,1.20
2019-04-25T02:25:19.677Z,1.47
2019-04-25T02:27:47.017Z,1.33
2019-04-25T02:30:15.729Z,1.70
2019-04-25T02:32:44.175Z,1.00
2019-04-25T02:35:12.080Z,1.23
2019-04-25T02:37:39.498Z,1.40
2019-04-25T02:40:08.523Z,1.37
2019-04-25T02:42:36.458Z,1.30
2019-04-25T02:45:16.650Z,1.27
2019-04-25T02:48:05.707Z,1.27
2019-04-25T02:50:48.995Z,1.37
2019-04-25T02:53:37.403Z,1.30
2019-04-25T02:56:19.009Z,1.10
2019-04-25T02:58:34.415Z,1.20
2019-04-25T03:01:14.308Z,1.30
2019-04-25T03:03:34.913Z,1.13
2019-04-25T03:06:03.714Z,1.03
2019-04-25T03:08:31.602Z,1.40
2019-04-25T03:10:59.839Z,1.20
2019-04-25T03:13:27.404Z,1.53
2019-04-25T03:15:55.728Z,1.70
2019-04-25T03:18:25.253Z,1.90
2019-04-25T03:21:13.361Z,1.77
2019-04-25T03:23:42.685Z,1.57
2019-04-25T03:26:09.818Z,1.70
2019-04-25T03:28:37.120Z,1.77
2019-04-25T03:31:09.276Z,1.77
2019-04-25T03:33:37.704Z,1.40
2019-04-25T03:36:03.548Z,1.60
2019-04-25T03:38:32.137Z,1.97
2019-04-25T03:41:00.178Z,1.80
2019-04-25T03:43:28.432Z,1.57
2019-04-25T03:45:55.900Z,1.50
2019-04-25T03:48:25.067Z,1.63
2019-04-25T03:50:53.965Z,1.50
2019-04-25T03:53:21.577Z,1.70
2019-04-25T03:55:48.911Z,1.60
2019-04-25T03:58:17.689Z,1.70
2019-04-25T04:00:45.065Z,1.80
2019-04-25T04:03:14.230Z,1.50
2019-04-25T04:05:41.648Z,1.70
2019-04-25T04:08:09.755Z,1.67
2019-04-25T04:10:37.186Z,1.43
2019-04-25T04:13:06.263Z,1.43
2019-04-25T04:15:33.969Z,1.30
2019-04-25T04:18:17.231Z,1.77
2019-04-25T04:21:05.388Z,1.57
2019-04-25T04:23:46.909Z,1.50
2019-04-25T04:26:14.570Z,1.30
2019-04-25T04:28:43.500Z,1.17
2019-04-25T04:31:10.976Z,2.00
2019-04-25T04:33:38.468Z,2.30
2019-04-25T04:36:07.311Z,2.93
2019-04-25T04:38:35.141Z,1.90
2019-04-25T04:41:03.946Z,2.00
2019-04-25T04:43:31.384Z,2.10
2019-04-25T04:45:58.723Z,2.27
2019-04-25T04:48:26.122Z,2.53
2019-04-25T04:50:53.509Z,2.73
2019-04-25T04:53:20.896Z,2.77
2019-04-25T04:55:48.224Z,2.20
2019-04-25T04:58:16.428Z,2.20
2019-04-25T05:00:44.838Z,1.80
2019-04-25T05:03:18.849Z,2.13
2019-04-25T05:06:01.317Z,1.97
2019-04-25T05:08:34.140Z,2.30
2019-04-25T05:11:01.525Z,2.00
2019-04-25T05:13:28.879Z,1.90
2019-04-25T05:15:56.326Z,2.13
2019-04-25T05:18:36.600Z,2.10
2019-04-25T05:20:54.262Z,1.87
2019-04-25T05:23:21.914Z,2.40
2019-04-25T05:25:49.257Z,1.90
2019-04-25T05:28:18.202Z,2.07
2019-04-25T05:30:51.548Z,1.83
2019-04-25T05:33:21.178Z,1.50
2019-04-25T05:35:48.216Z,1.40
2019-04-25T05:38:16.360Z,1.30
2019-04-25T05:40:55.961Z,1.20
2019-04-25T05:43:24.567Z,1.40
2019-04-25T05:45:54.124Z,1.43
2019-04-25T05:48:21.781Z,1.47
2019-04-25T05:50:49.148Z,1.30
2019-04-25T05:53:16.572Z,1.43
2019-04-25T05:55:44.199Z,1.67
2019-04-25T05:58:11.680Z,1.67
2019-04-25T06:00:39.700Z,1.40
2019-04-25T06:03:07.030Z,2.10
2019-04-25T06:05:34.380Z,1.13
2019-04-25T06:08:01.836Z,1.57
2019-04-25T06:10:38.730Z,1.27
2019-04-25T06:13:37.651Z,1.10
2019-04-25T06:16:10.056Z,1.20
2019-04-25T06:19:14.141Z,1.70
2019-04-25T06:21:38.751Z,1.30
2019-04-25T06:24:26.020Z,1.50
2019-04-25T06:27:16.395Z,1.60
2019-04-25T06:29:57.321Z,1.27
2019-04-25T06:32:14.944Z,1.10
2019-04-25T06:34:44.217Z,1.27
2019-04-25T06:37:11.817Z,1.33
2019-04-25T06:39:39.301Z,1.67
2019-04-25T06:42:06.671Z,1.47
2019-04-25T06:44:43.228Z,1.50
2019-04-25T06:47:34.092Z,1.87
2019-04-25T06:50:01.658Z,1.37
2019-04-25T06:52:31.140Z,1.93
2019-04-25T06:54:58.357Z,1.90
2019-04-25T06:57:26.973Z,1.57
2019-04-25T06:59:54.978Z,1.30
2019-04-25T07:02:25.110Z,1.30
2019-04-25T07:04:51.753Z,1.50
2019-04-25T07:07:19.171Z,1.53
2019-04-25T07:09:46.533Z,1.00
2019-04-25T07:12:14.043Z,1.40
2019-04-25T07:14:41.356Z,1.37
2019-04-25T07:17:08.736Z,1.57
2019-04-25T07:19:38.210Z,1.20
2019-04-25T07:22:05.608Z,1.10
2019-04-25T07:24:35.037Z,1.40
2019-04-25T07:27:30.877Z,1.40
2019-04-25T07:30:38.070Z,1.30
2019-04-25T07:33:01.579Z,1.10
2019-04-25T07:35:29.050Z,1.20
2019-04-25T07:37:56.389Z,1.07
2019-04-25T07:40:23.840Z,1.27
2019-04-25T07:42:51.240Z,1.37
2019-04-25T07:45:18.848Z,1.03
2019-04-25T07:47:46.251Z,1.30
2019-04-25T07:50:15.383Z,1.20
2019-04-25T07:52:44.326Z,1.00
2019-04-25T07:55:13.696Z,1.20
2019-04-25T07:57:42.185Z,1.40
2019-04-25T08:00:14.113Z,1.43
2019-04-25T08:02:43.222Z,1.07
2019-04-25T08:05:14.414Z,1.10
2019-04-25T08:07:43.592Z,1.00
2019-04-25T08:10:12.037Z,1.30
2019-04-25T08:12:40.660Z,1.00
2019-04-25T08:15:17.975Z,0.97
2019-04-25T08:17:56.046Z,1.17
2019-04-25T08:20:24.936Z,1.27
2019-04-25T08:22:58.339Z,1.20
2019-04-25T08:25:23.411Z,1.23
2019-04-25T08:27:50.959Z,1.03
2019-04-25T08:30:18.690Z,0.90
2019-04-25T08:32:46.161Z,1.03
2019-04-25T08:35:15.650Z,0.83
2019-04-25T08:37:44.120Z,1.37
2019-04-25T08:40:13.638Z,1.00
2019-04-25T08:42:41.913Z,0.90
2019-04-25T08:45:09.781Z,1.00
2019-04-25T08:47:37.388Z,0.80
2019-04-25T08:50:26.791Z,0.90
2019-04-25T08:52:47.239Z,1.00
2019-04-25T08:55:44.392Z,0.90
2019-04-25T08:58:35.454Z,1.20
2019-04-25T09:01:29.314Z,0.90
2019-04-25T09:04:13.306Z,1.30
2019-04-25T09:06:40.885Z,1.10
2019-04-25T09:09:08.337Z,1.00
2019-04-25T09:11:37.885Z,1.23
2019-04-25T09:14:05.015Z,1.37
2019-04-25T09:16:34.529Z,1.20
2019-04-25T09:19:03.040Z,1.30
2019-04-25T09:21:30.918Z,1.50
2019-04-25T09:23:58.345Z,1.17
2019-04-25T09:26:28.251Z,1.13
2019-04-25T09:28:55.584Z,1.23
2019-04-25T09:31:23.642Z,0.90
2019-04-25T09:33:54.216Z,1.00
2019-04-25T09:36:21.597Z,1.07
2019-04-25T09:38:51.891Z,1.70
2019-04-25T09:41:19.292Z,1.17
2019-04-25T09:43:48.664Z,1.13
2019-04-25T09:46:24.531Z,1.07
2019-04-25T09:48:58.543Z,1.30
2019-04-25T09:51:29.514Z,1.30
2019-04-25T09:54:15.199Z,1.10
2019-04-25T09:56:46.113Z,0.70
2019-04-25T09:59:26.732Z,1.23
2019-04-25T10:01:48.924Z,1.20
2019-04-25T10:04:16.441Z,1.13
2019-04-25T10:06:45.000Z,1.30
2019-04-25T10:09:13.593Z,1.20
2019-04-25T10:11:43.996Z,1.40
2019-04-25T10:14:35.118Z,1.10
2019-04-25T10:17:03.813Z,1.07
2019-04-25T10:19:31.546Z,1.03
2019-04-25T10:21:58.968Z,1.30
2019-04-25T10:24:26.326Z,1.27
2019-04-25T10:26:54.798Z,1.00
2019-04-25T10:29:22.516Z,1.10
2019-04-25T10:31:49.852Z,1.07
2019-04-25T10:34:17.372Z,1.50
2019-04-25T10:36:45.411Z,1.50
2019-04-25T10:39:14.472Z,0.80
2019-04-25T10:41:44.741Z,1.40
2019-04-25T10:44:11.706Z,1.30
2019-04-25T10:46:40.066Z,1.00
2019-04-25T10:49:07.767Z,1.20
2019-04-25T10:51:35.202Z,1.00
2019-04-25T10:54:04.115Z,1.27
2019-04-25T10:56:33.376Z,1.10
2019-04-25T10:59:01.021Z,1.00
2019-04-25T11:01:28.457Z,1.07
2019-04-25T11:04:02.116Z,1.03
2019-04-25T11:06:29.532Z,1.10
2019-04-25T11:08:56.867Z,0.90
2019-04-25T11:11:24.301Z,0.93
2019-04-25T11:13:54.011Z,1.03
2019-04-25T11:16:21.991Z,0.93
2019-04-25T11:18:49.658Z,1.10
2019-04-25T11:21:17.518Z,1.20
2019-04-25T11:23:47.580Z,0.70
2019-04-25T11:26:14.714Z,1.20
2019-04-25T11:28:45.138Z,0.90
2019-04-25T11:31:17.290Z,1.20
2019-04-25T11:33:44.700Z,1.50
2019-04-25T11:36:13.340Z,0.80
2019-04-25T11:38:57.584Z,1.13
2019-04-25T11:41:25.203Z,1.13
2019-04-25T11:43:54.397Z,1.00
2019-04-25T11:46:22.072Z,1.20
2019-04-25T11:48:50.427Z,1.20
2019-04-25T11:51:18.737Z,0.90
2019-04-25T11:53:47.212Z,1.30
2019-04-25T11:56:14.939Z,1.10
2019-04-25T11:58:45.059Z,1.40
2019-04-25T12:01:13.833Z,1.47
2019-04-25T12:03:41.668Z,1.33
2019-04-25T12:06:11.230Z,1.50
2019-04-25T12:08:38.770Z,1.33
2019-04-25T12:11:19.486Z,1.60
2019-04-25T12:13:48.058Z,1.10
2019-04-25T12:16:17.684Z,1.27
2019-04-25T12:18:48.120Z,1.20
2019-04-25T12:21:14.780Z,1.23
2019-04-25T12:23:42.151Z,1.27
2019-04-25T12:26:09.481Z,1.40
2019-04-25T12:28:36.881Z,1.47
2019-04-25T12:31:04.252Z,1.20
2019-04-25T12:33:34.811Z,1.20
2019-04-25T12:36:02.820Z,1.40
2019-04-25T12:38:30.817Z,1.43
2019-04-25T12:40:58.853Z,1.40
2019-04-25T12:43:28.992Z,1.20
2019-04-25T12:46:25.174Z,1.30
2019-04-25T12:48:52.542Z,1.60
2019-04-25T12:51:20.410Z,1.40
2019-04-25T12:53:47.997Z,1.20
2019-04-25T12:56:15.386Z,1.40
2019-04-25T12:58:43.499Z,1.50
2019-04-25T13:01:11.319Z,1.27
2019-04-25T13:03:38.726Z,1.50
2019-04-25T13:06:06.164Z,1.43
2019-04-25T13:08:34.092Z,1.20
2019-04-25T13:11:07.955Z,1.03
2019-04-25T13:13:30.777Z,1.47
2019-04-25T13:15:58.311Z,1.67
2019-04-25T13:18:25.704Z,1.67
2019-04-25T13:20:55.012Z,1.53
2019-04-25T13:23:24.172Z,1.50
2019-04-25T13:25:51.650Z,1.83
2019-04-25T13:28:38.569Z,1.50
2019-04-25T13:31:24.656Z,1.67
2019-04-25T13:34:01.703Z,1.30
2019-04-25T13:36:29.190Z,1.23
2019-04-25T13:38:57.183Z,1.70
2019-04-25T13:41:24.817Z,1.73
2019-04-25T13:43:53.063Z,3.27
2019-04-25T13:46:24.387Z,2.13
2019-04-25T13:48:50.635Z,5.73
2019-04-25T13:51:18.006Z,1.60
2019-04-25T13:53:45.434Z,1.80
2019-04-25T13:56:13.353Z,1.60
2019-04-25T13:58:40.868Z,1.80
2019-04-25T14:01:13.203Z,1.37
2019-04-25T14:03:39.617Z,1.30
2019-04-25T14:06:07.817Z,1.67
2019-04-25T14:08:35.377Z,1.40
2019-04-25T14:11:04.924Z,1.20
2019-04-25T14:13:32.529Z,1.60
2019-04-25T14:16:28.327Z,1.73
2019-04-25T14:19:07.908Z,5.07
2019-04-25T14:21:35.330Z,2.37
2019-04-25T14:24:02.746Z,2.00
2019-04-25T14:26:31.288Z,1.90
2019-04-25T14:28:58.680Z,1.77
2019-04-25T14:31:41.237Z,1.53
2019-04-25T14:33:55.466Z,1.43
2019-04-25T14:36:25.825Z,1.40
2019-04-25T14:38:52.180Z,1.67
2019-04-25T14:41:19.924Z,1.50
2019-04-25T14:43:47.308Z,1.37
2019-04-25T14:46:14.757Z,1.53
2019-04-25T14:48:42.167Z,1.10
2019-04-25T14:51:10.862Z,1.60
2019-04-25T14:53:38.456Z,1.40
2019-04-25T14:56:19.478Z,1.40
2019-04-25T14:58:46.836Z,1.90
2019-04-25T15:01:16.552Z,1.70
2019-04-25T15:03:43.941Z,1.50
2019-04-25T15:06:11.301Z,1.93
2019-04-25T15:08:38.981Z,1.20
2019-04-25T15:11:06.526Z,1.30
2019-04-25T15:13:33.942Z,1.80
2019-04-25T15:16:01.403Z,1.47
2019-04-25T15:18:28.858Z,1.53
2019-04-25T15:20:56.306Z,1.67
2019-04-25T15:23:24.167Z,1.90
2019-04-25T15:25:52.093Z,1.80
2019-04-25T15:28:19.485Z,1.90
2019-04-25T15:30:47.030Z,1.93
2019-04-25T15:33:14.416Z,1.70
2019-04-25T15:35:56.589Z,1.80
2019-04-25T15:38:31.394Z,1.90
2019-04-25T15:41:08.535Z,1.80
2019-04-25T15:44:04.629Z,1.87
2019-04-25T15:46:34.483Z,1.70
2019-04-25T15:49:01.908Z,1.90
2019-04-25T15:51:29.934Z,1.50
2019-04-25T15:53:57.427Z,1.50
2019-04-25T15:56:24.924Z,1.60
2019-04-25T15:58:52.343Z,1.60
2019-04-25T16:01:19.717Z,1.50
2019-04-25T16:03:47.188Z,1.57
2019-04-25T16:06:14.627Z,1.30
2019-04-25T16:08:42.219Z,1.30
2019-04-25T16:11:09.560Z,1.00
2019-04-25T16:13:37.539Z,1.30
2019-04-25T16:16:05.631Z,1.20
2019-04-25T16:18:33.176Z,1.20
2019-04-25T16:21:00.929Z,0.93
2019-04-25T16:23:29.022Z,1.30
2019-04-25T16:25:56.786Z,1.30
2019-04-25T16:28:24.213Z,1.13
2019-04-25T16:30:51.820Z,1.23
2019-04-25T16:33:19.242Z,1.40
2019-04-25T16:35:46.622Z,1.50
2019-04-25T16:38:14.631Z,1.60
2019-04-25T16:40:42.085Z,1.17
2019-04-25T16:43:12.330Z,1.20
2019-04-25T16:45:39.825Z,1.70
2019-04-25T16:48:07.182Z,0.93
2019-04-25T16:50:34.687Z,1.40
2019-04-25T16:53:02.150Z,1.50
2019-04-25T16:55:30.853Z,1.33
2019-04-25T16:57:59.207Z,1.50
2019-04-25T17:00:42.377Z,1.77
2019-04-25T17:03:10.269Z,1.40
2019-04-25T17:05:38.122Z,1.33
2019-04-25T17:08:06.645Z,1.17
2019-04-25T17:10:34.796Z,1.40
2019-04-25T17:13:02.391Z,1.30
2019-04-25T17:15:39.896Z,1.07
2019-04-25T17:18:20.039Z,1.10
2019-04-25T17:20:53.574Z,1.40
2019-04-25T17:23:21.365Z,1.30
2019-04-25T17:25:48.859Z,1.30
2019-04-25T17:28:16.220Z,1.27
2019-04-25T17:30:45.539Z,1.20
2019-04-25T17:33:21.052Z,1.30
2019-04-25T17:36:07.975Z,1.10
2019-04-25T17:38:47.837Z,1.10
2019-04-25T17:41:15.284Z,1.40
2019-04-25T17:43:42.701Z,1.40
2019-04-25T17:46:11.078Z,1.40
2019-04-25T17:48:38.493Z,1.30
2019-04-25T17:51:05.890Z,1.10
2019-04-25T17:53:34.403Z,1.10
2019-04-25T17:56:01.997Z,1.30
2019-04-25T17:58:29.329Z,1.27
2019-04-25T18:00:56.977Z,1.20
2019-04-25T18:03:24.804Z,1.17
2019-04-25T18:05:52.248Z,1.13
2019-04-25T18:08:23.651Z,1.23
2019-04-25T18:10:50.514Z,1.20
2019-04-25T18:13:18.020Z,1.50
2019-04-25T18:15:55.267Z,1.30
2019-04-25T18:18:41.331Z,1.20
2019-04-25T18:21:09.062Z,0.93
2019-04-25T18:23:54.751Z,1.40
2019-04-25T18:26:30.784Z,1.20
2019-04-25T18:29:02.135Z,1.20
2019-04-25T18:31:30.768Z,1.20
2019-04-25T18:34:02.127Z,1.03
2019-04-25T18:36:52.231Z,1.27
2019-04-25T18:39:42.009Z,1.40
2019-04-25T18:42:32.430Z,0.97
2019-04-25T18:45:02.944Z,1.23
2019-04-25T18:47:30.679Z,1.10
2019-04-25T18:49:58.171Z,1.13
2019-04-25T18:52:49.941Z,1.30
2019-04-25T18:55:27.192Z,1.40
2019-04-25T18:58:04.964Z,1.33
2019-04-25T19:00:43.704Z,1.30
2019-04-25T19:03:31.449Z,1.07
2019-04-25T19:06:04.504Z,1.10
2019-04-25T19:08:32.213Z,1.10
2019-04-25T19:11:08.181Z,0.90
2019-04-25T19:13:35.855Z,0.93
2019-04-25T19:16:04.897Z,1.30
2019-04-25T19:18:32.559Z,0.93
2019-04-25T19:21:00.660Z,1.10
2019-04-25T19:23:33.281Z,0.80
2019-04-25T19:26:01.058Z,1.10
2019-04-25T19:28:28.517Z,0.93
2019-04-25T19:30:56.525Z,1.00
2019-04-25T19:33:35.170Z,0.97
2019-04-25T19:35:53.909Z,0.80
2019-04-25T19:38:21.487Z,0.97
2019-04-25T19:41:01.964Z,1.23
2019-04-25T19:43:51.846Z,0.90
2019-04-25T19:46:21.264Z,0.90
2019-04-25T19:48:49.944Z,0.90
2019-04-25T19:51:17.656Z,1.00
2019-04-25T19:53:45.707Z,0.87
2019-04-25T19:56:21.614Z,1.20
2019-04-25T19:58:50.727Z,1.10
2019-04-25T20:01:19.380Z,0.90
2019-04-25T20:03:58.074Z,0.80
2019-04-25T20:06:33.173Z,0.80
2019-04-25T20:09:10.179Z,0.60
2019-04-25T20:11:42.733Z,0.87
2019-04-25T20:14:11.649Z,0.83
2019-04-25T20:16:46.068Z,0.90
2019-04-25T20:19:13.722Z,0.90
2019-04-25T20:21:41.205Z,0.80
2019-04-25T20:24:09.988Z,0.80
2019-04-25T20:26:37.377Z,0.83
2019-04-25T20:29:07.193Z,0.60
2019-04-25T20:31:35.251Z,0.77
2019-04-25T20:34:06.065Z,1.00
2019-04-25T20:36:32.014Z,0.80
2019-04-25T20:38:59.397Z,1.00
2019-04-25T20:41:26.857Z,1.10
2019-04-25T20:43:54.960Z,0.80
2019-04-25T20:46:22.512Z,0.80
2019-04-25T20:48:50.313Z,0.77
2019-04-25T20:51:17.778Z,0.80
2019-04-25T20:53:45.188Z,0.90
2019-04-25T20:56:12.646Z,0.67
2019-04-25T20:58:40.109Z,0.73
2019-04-25T21:01:07.470Z,1.20
2019-04-25T21:03:34.863Z,1.10
2019-04-25T21:06:07.992Z,0.90
2019-04-25T21:08:35.381Z,0.80
2019-04-25T21:11:02.782Z,0.80
2019-04-25T21:13:39.121Z,1.00
2019-04-25T21:16:25.989Z,0.83
2019-04-25T21:19:02.049Z,0.70
2019-04-25T21:21:29.443Z,1.10
2019-04-25T21:23:56.990Z,1.10
2019-04-25T21:26:24.379Z,1.30
2019-04-25T21:28:52.246Z,0.83
2019-04-25T21:31:19.872Z,0.97
2019-04-25T21:33:47.264Z,1.20
2019-04-25T21:36:15.142Z,0.77
2019-04-25T21:38:42.676Z,1.43
2019-04-25T21:41:28.193Z,1.10
2019-04-25T21:44:00.178Z,1.20
2019-04-25T21:46:27.840Z,0.77
2019-04-25T21:48:55.411Z,1.07
2019-04-25T21:51:32.195Z,1.00
2019-04-25T21:54:01.397Z,1.23
2019-04-25T21:56:29.160Z,1.47
2019-04-25T21:58:57.509Z,1.10
2019-04-25T22:01:28.597Z,1.20
2019-04-25T22:03:56.481Z,0.80
2019-04-25T22:06:24.181Z,0.70
2019-04-25T22:08:51.539Z,1.10
2019-04-25T22:11:18.881Z,1.03
2019-04-25T22:13:46.665Z,1.30
2019-04-25T22:16:14.462Z,0.90
2019-04-25T22:18:42.440Z,1.30
2019-04-25T22:21:10.357Z,1.00
2019-04-25T22:23:38.415Z,1.20
2019-04-25T22:26:07.045Z,0.80
2019-04-25T22:28:34.897Z,0.90
2019-04-25T22:31:07.578Z,1.10
2019-04-25T22:33:55.632Z,1.30
2019-04-25T22:36:23.913Z,1.10
2019-04-25T22:39:11.103Z,1.30
2019-04-25T22:41:40.825Z,1.23
2019-04-25T22:44:10.745Z,1.43
2019-04-25T22:46:38.641Z,1.20
2019-04-25T22:49:06.446Z,1.60
2019-04-25T22:51:34.301Z,1.50
2019-04-25T22:54:03.226Z,1.17
2019-04-25T22:56:30.841Z,1.90
2019-04-25T22:58:58.221Z,1.73
2019-04-25T23:01:45.536Z,2.00
2019-04-25T23:04:22.955Z,2.03
2019-04-25T23:06:50.437Z,1.83
2019-04-25T23:09:18.052Z,1.93
2019-04-25T23:11:45.949Z,1.90
2019-04-25T23:14:13.663Z,2.03
2019-04-25T23:16:40.987Z,2.37
2019-04-25T23:19:08.323Z,2.07
2019-04-25T23:21:36.684Z,1.80
2019-04-25T23:24:04.756Z,2.50
2019-04-25T23:26:41.632Z,2.03
2019-04-25T23:29:08.984Z,2.13
2019-04-25T23:31:37.529Z,2.30
2019-04-25T23:34:06.106Z,2.10
2019-04-25T23:36:34.362Z,2.17
2019-04-25T23:39:07.271Z,2.03
2019-04-25T23:41:34.981Z,1.80
2019-04-25T23:44:02.341Z,2.73
2019-04-25T23:46:30.004Z,2.07
2019-04-25T23:48:57.321Z,2.57
2019-04-25T23:51:24.661Z,2.07
2019-04-25T23:53:52.421Z,2.73
2019-04-25T23:56:19.766Z,2.47
2019-04-25T23:58:47.426Z,2.57
